createdAt,value
2019-01-27T00:06:34.398Z,86.93
2019-01-27T00:09:23.379Z,87.37
2019-01-27T00:12:11.035Z,87.58
2019-01-27T00:14:58.581Z,87.72
2019-01-27T00:17:49.332Z,87.86
2019-01-27T00:20:37.080Z,88.03
2019-01-27T00:23:26.442Z,88.11
2019-01-27T00:26:14.711Z,88.15
2019-01-27T00:29:04.145Z,88.20
2019-01-27T00:31:53.221Z,88.25
2019-01-27T00:34:41.009Z,88.34
2019-01-27T00:37:29.701Z,88.37
2019-01-27T01:14:43.888Z,88.72
2019-01-27T01:17:32.989Z,88.63
2019-01-27T01:20:20.956Z,88.65
2019-01-27T01:26:17.881Z,88.55
2019-01-27T01:29:05.664Z,88.55
2019-01-27T01:38:23.310Z,88.51
2019-01-27T01:41:11.651Z,88.51
2019-01-27T01:44:00.664Z,88.52
2019-01-27T01:49:54.684Z,88.50
2019-01-27T01:52:42.313Z,88.55
2019-01-27T02:11:06.868Z,88.95
2019-01-27T02:13:55.738Z,89.01
2019-01-27T02:20:07.605Z,87.68
2019-01-27T02:22:55.342Z,88.12
2019-01-27T02:25:43.289Z,88.29
2019-01-27T02:28:37.484Z,88.33
2019-01-27T02:31:25.004Z,88.40
2019-01-27T02:34:13.081Z,87.21
2019-01-27T02:37:03.098Z,87.59
2019-01-27T02:39:55.808Z,87.77
2019-01-27T02:42:43.733Z,87.86
2019-01-27T02:45:34.169Z,87.99
2019-01-27T02:48:24.102Z,88.04
2019-01-27T02:51:29.452Z,88.12
2019-01-27T02:54:16.999Z,88.19
2019-01-27T02:57:04.861Z,88.22
2019-01-27T02:59:52.878Z,88.25
2019-01-27T03:02:40.295Z,88.35
2019-01-27T03:05:43.360Z,88.38
2019-01-27T03:08:31.140Z,88.43
2019-01-27T03:24:00.083Z,87.74
2019-01-27T03:26:48.094Z,87.79
2019-01-27T03:32:51.791Z,87.92
2019-01-27T03:35:39.430Z,87.94
2019-01-27T03:38:27.980Z,88.04
2019-01-27T04:24:43.193Z,87.67
2019-01-27T05:20:24.813Z,88.40
2019-01-27T05:23:12.438Z,88.44
2019-01-27T05:26:00.076Z,88.46
2019-01-27T05:38:13.063Z,88.53
2019-01-27T05:41:04.480Z,87.21
2019-01-27T05:43:52.042Z,87.55
2019-01-27T05:56:02.946Z,88.01
2019-01-27T05:58:50.897Z,88.08
2019-01-27T06:01:38.767Z,88.16
2019-01-27T06:04:26.242Z,88.19
2019-01-27T06:07:14.343Z,88.18
2019-01-27T06:10:19.393Z,88.17
2019-01-27T06:13:15.066Z,88.16
2019-01-27T06:31:48.264Z,87.47
2019-01-27T06:34:37.459Z,87.49
2019-01-27T06:37:25.827Z,87.48
2019-01-27T06:40:17.428Z,87.52
2019-01-27T07:08:25.818Z,87.35
2019-01-27T07:24:40.182Z,87.60
2019-01-27T07:27:31.021Z,87.55
2019-01-27T07:56:14.651Z,84.72
2019-01-27T08:02:31.701Z,85.28
2019-01-27T08:05:24.347Z,83.71
2019-01-27T08:08:20.718Z,84.40
2019-01-27T08:11:13.403Z,84.82
2019-01-27T08:14:19.358Z,85.07
2019-01-27T08:23:32.340Z,85.54
2019-01-27T08:26:20.009Z,85.57
2019-01-27T08:29:17.223Z,85.56
2019-01-27T08:32:12.604Z,83.86
2019-01-27T08:35:05.527Z,84.38
2019-01-27T08:57:07.443Z,82.84
2019-01-27T09:12:51.277Z,82.36
2019-01-27T09:15:40.129Z,82.97
2019-01-27T09:21:53.552Z,83.71
2019-01-27T09:24:40.863Z,83.96
2019-01-27T09:27:32.073Z,84.25
2019-01-27T10:05:31.172Z,84.97
2019-01-27T10:08:25.759Z,84.80
2019-01-27T10:11:13.737Z,82.23
2019-01-27T10:14:05.466Z,82.84
2019-01-27T10:16:56.366Z,83.23
2019-01-27T10:19:43.826Z,83.32
2019-01-27T10:22:40.632Z,83.14
2019-01-27T10:32:03.327Z,83.20
2019-01-27T10:47:52.687Z,83.23
2019-01-27T11:10:22.062Z,81.55
2019-01-27T11:13:09.546Z,81.68
2019-01-27T11:19:48.982Z,81.41
2019-01-27T11:26:00.770Z,75.65
2019-01-27T11:28:45.797Z,74.48
2019-01-27T11:34:47.583Z,76.15
2019-01-27T11:37:35.806Z,76.97
2019-01-27T12:18:21.927Z,77.80
2019-01-27T12:21:09.430Z,73.82
2019-01-27T12:23:57.048Z,75.79
2019-01-27T12:26:46.029Z,76.52
2019-01-27T12:29:34.413Z,76.83
2019-01-27T12:32:23.218Z,77.13
2019-01-27T12:35:14.785Z,77.21
2019-01-27T12:38:03.868Z,77.17
2019-01-27T12:47:07.918Z,78.34
2019-01-27T12:49:55.445Z,78.23
2019-01-27T12:52:42.713Z,78.53
2019-01-27T12:58:43.070Z,78.75
2019-01-27T13:01:30.504Z,78.58
2019-01-27T13:04:18.245Z,78.84
2019-01-27T13:32:15.338Z,79.45
2019-01-27T13:35:03.650Z,79.20
2019-01-27T13:37:50.851Z,75.90
2019-01-27T13:40:38.700Z,76.98
2019-01-27T13:43:27.819Z,77.67
2019-01-27T13:46:24.052Z,77.96
2019-01-27T13:49:12.410Z,78.26
2019-01-27T13:52:00.633Z,78.38
2019-01-27T13:54:52.437Z,78.67
2019-01-27T13:57:39.949Z,78.67
2019-01-27T14:00:44.770Z,78.67
2019-01-27T14:03:32.804Z,78.82
2019-01-27T14:06:21.312Z,78.69
2019-01-27T14:09:08.773Z,78.49
2019-01-27T14:24:36.987Z,79.11
2019-01-27T14:27:24.870Z,79.31
2019-01-27T14:30:13.266Z,76.11
2019-01-27T14:33:16.872Z,77.38
2019-01-27T14:36:04.567Z,78.05
2019-01-27T14:38:53.137Z,75.04
2019-01-27T14:44:49.320Z,73.71
2019-01-27T15:09:39.078Z,74.02
2019-01-27T15:12:28.880Z,75.94
2019-01-27T15:15:21.833Z,76.78
2019-01-27T15:18:10.426Z,77.48
2019-01-27T15:21:02.726Z,77.64
2019-01-27T15:23:50.555Z,78.29
2019-01-27T15:26:47.278Z,78.48
2019-01-27T15:45:26.606Z,79.03
2019-01-27T15:48:14.665Z,79.60
2019-01-27T15:51:03.696Z,77.07
2019-01-27T15:53:51.839Z,78.50
2019-01-27T15:56:40.160Z,76.40
2019-01-27T15:59:32.809Z,77.63
2019-01-27T16:02:25.231Z,78.21
2019-01-27T16:05:10.553Z,78.40
2019-01-27T16:08:01.720Z,78.76
2019-01-27T16:17:15.390Z,77.55
2019-01-27T16:20:08.812Z,78.58
2019-01-27T16:23:15.108Z,79.19
2019-01-27T16:26:03.333Z,79.79
2019-01-27T16:28:50.845Z,80.02
2019-01-27T16:31:43.191Z,80.37
2019-01-27T16:40:47.443Z,79.54
2019-01-27T16:46:50.019Z,80.61
2019-01-27T16:52:44.884Z,80.59
2019-01-27T16:55:41.781Z,78.48
2019-01-27T17:01:45.052Z,79.98
2019-01-27T17:04:35.146Z,80.41
2019-01-27T17:07:33.656Z,80.70
2019-01-27T17:10:27.880Z,81.00
2019-01-27T17:13:16.820Z,81.11
2019-01-27T17:22:27.159Z,81.61
2019-01-27T17:25:15.787Z,79.79
2019-01-27T17:28:08.995Z,80.72
2019-01-27T17:30:57.283Z,79.08
2019-01-27T17:39:25.554Z,81.66
2019-01-27T17:42:13.594Z,81.99
2019-01-27T17:45:04.720Z,80.33
2019-01-27T17:48:01.078Z,81.34
2019-01-27T17:50:47.012Z,81.79
2019-01-27T17:53:37.748Z,82.10
2019-01-27T18:15:48.681Z,83.26
2019-01-27T18:24:55.509Z,83.48
2019-01-27T18:27:43.574Z,83.51
2019-01-27T18:30:31.392Z,83.58
2019-01-27T18:33:19.371Z,83.64
2019-01-27T18:36:09.971Z,82.10
2019-01-27T18:38:59.263Z,82.76
2019-01-27T18:48:11.349Z,83.50
2019-01-27T18:51:00.008Z,81.85
2019-01-27T18:53:47.980Z,82.58
2019-01-27T18:56:46.991Z,83.02
2019-01-27T18:59:52.153Z,83.31
2019-01-27T19:02:45.965Z,83.59
2019-01-27T19:05:40.162Z,82.09
2019-01-27T19:08:46.537Z,82.78
2019-01-27T19:11:34.166Z,83.34
2019-01-27T19:14:25.943Z,83.55
2019-01-27T19:17:17.913Z,83.71
2019-01-27T19:20:34.783Z,83.85
2019-01-27T19:23:27.477Z,83.95
2019-01-27T19:26:15.252Z,84.09
2019-01-27T19:29:07.237Z,84.13
2019-01-27T19:32:03.140Z,84.22
2019-01-27T19:34:56.890Z,84.17
2019-01-27T19:41:15.258Z,84.32
2019-01-27T19:44:27.536Z,84.21
2019-01-27T19:47:31.649Z,84.24
2019-01-27T19:50:22.205Z,84.36
2019-01-27T19:56:54.394Z,84.43
2019-01-27T19:59:42.397Z,84.36
2019-01-27T20:02:33.394Z,84.35
2019-01-27T20:05:34.683Z,84.37
2019-01-27T20:08:32.633Z,84.44
2019-01-27T20:11:35.345Z,84.45
2019-01-27T20:14:26.927Z,82.92
2019-01-27T20:17:20.397Z,81.83
2019-01-27T20:20:08.360Z,82.63
2019-01-27T20:23:00.177Z,83.11
2019-01-27T20:25:47.681Z,83.49
2019-01-27T20:28:52.049Z,83.74
2019-01-27T20:31:39.962Z,83.90
2019-01-27T20:34:32.471Z,84.00
2019-01-27T20:37:23.788Z,84.12
2019-01-27T20:40:13.474Z,84.21
2019-01-27T20:43:04.377Z,84.33
2019-01-27T20:45:54.995Z,84.44
2019-01-27T20:48:59.217Z,84.67
2019-01-27T20:51:50.993Z,84.88
2019-01-27T20:54:41.623Z,84.99
2019-01-27T20:57:32.398Z,85.21
2019-01-27T21:00:26.102Z,85.28
2019-01-27T21:03:19.543Z,85.37
2019-01-27T21:06:07.374Z,85.37
2019-01-27T21:09:07.327Z,85.52
2019-01-27T21:12:10.753Z,85.68
2019-01-27T21:15:03.858Z,85.76
2019-01-27T21:17:59.103Z,85.68
2019-01-27T21:20:53.684Z,85.68
2019-01-27T21:23:37.121Z,85.61
2019-01-27T21:26:31.013Z,85.61
2019-01-27T21:29:19.917Z,84.13
2019-01-27T21:32:09.206Z,84.59
2019-01-27T21:34:57.623Z,84.90
2019-01-27T21:37:45.607Z,85.17
2019-01-27T21:40:34.478Z,85.43
2019-01-27T21:43:25.646Z,85.62
2019-01-27T21:46:13.569Z,85.88
2019-01-27T21:49:11.896Z,86.03
2019-01-27T21:52:00.148Z,86.15
2019-01-27T21:54:47.829Z,86.34
2019-01-27T21:57:35.827Z,86.33
2019-01-27T22:00:23.216Z,86.34
2019-01-27T22:03:12.574Z,86.30
2019-01-27T22:06:00.523Z,86.28
2019-01-27T22:08:48.402Z,86.42
2019-01-27T22:11:37.934Z,86.38
2019-01-27T22:14:26.958Z,86.35
2019-01-27T22:17:24.725Z,86.31
2019-01-27T22:20:28.598Z,86.32
2019-01-27T22:23:17.051Z,86.38
2019-01-27T22:26:06.335Z,86.34
2019-01-27T22:28:53.862Z,86.31
2019-01-27T22:31:41.909Z,86.31
2019-01-27T22:34:30.556Z,86.26
2019-01-27T22:37:20.688Z,86.22
2019-01-27T22:40:10.737Z,86.20
2019-01-27T22:43:01.559Z,84.80
2019-01-27T22:45:50.728Z,85.09
2019-01-27T22:48:39.181Z,85.23
2019-01-27T22:51:44.424Z,85.36
2019-01-27T22:54:33.581Z,83.79
2019-01-27T23:00:36.023Z,84.72
2019-01-27T23:12:50.218Z,85.56
2019-01-27T23:18:45.772Z,85.70
2019-01-27T23:24:49.694Z,85.93
2019-01-27T23:27:48.334Z,85.99
2019-01-27T23:30:40.643Z,86.07
2019-01-27T23:33:30.756Z,84.60
2019-01-27T23:36:20.377Z,83.54
2019-01-27T23:39:10.183Z,82.59
2019-01-27T23:42:07.668Z,83.46
2019-01-27T23:44:57.251Z,84.21
2019-01-27T23:47:47.172Z,82.91
2019-01-27T23:50:35.989Z,83.76
2019-01-27T23:53:25.873Z,82.58
2019-01-27T23:56:13.784Z,83.62
2019-01-27T23:59:01.805Z,82.45
